sensor_id;sensor_type;location;lat;lon;timestamp;P1;durP1;ratioP1;P2;durP2;ratioP2
5904;SDS011;2978;42.012;24.880;2023-03-01T00:01:04;1.93;;;1.83;;
5904;SDS011;2978;42.012;24.880;2023-03-01T00:03:31;2.23;;;2.13;;
5904;SDS011;2978;42.012;24.880;2023-03-01T00:05:57;2.07;;;1.97;;
5904;SDS011;2978;42.012;24.880;2023-03-01T00:08:23;2.80;;;2.60;;
5904;SDS011;2978;42.012;24.880;2023-03-01T00:10:49;2.83;;;2.63;;
5904;SDS011;2978;42.012;24.880;2023-03-01T00:13:14;4.17;;;3.87;;
5904;SDS011;2978;42.012;24.880;2023-03-01T00:15:40;3.73;;;3.43;;
5904;SDS011;2978;42.012;24.880;2023-03-01T00:18:06;3.33;;;3.03;;
5904;SDS011;2978;42.012;24.880;2023-03-01T00:20:33;3.30;;;3.10;;
5904;SDS011;2978;42.012;24.880;2023-03-01T00:22:59;4.27;;;3.30;;
5904;SDS011;2978;42.012;24.880;2023-03-01T00:25:24;3.40;;;3.10;;
5904;SDS011;2978;42.012;24.880;2023-03-01T00:27:50;4.37;;;4.00;;
5904;SDS011;2978;42.012;24.880;2023-03-01T00:30:15;3.90;;;3.60;;
5904;SDS011;2978;42.012;24.880;2023-03-01T00:32:41;3.43;;;3.23;;
5904;SDS011;2978;42.012;24.880;2023-03-01T00:35:06;3.00;;;2.80;;
5904;SDS011;2978;42.012;24.880;2023-03-01T00:37:32;3.20;;;3.00;;
5904;SDS011;2978;42.012;24.880;2023-03-01T00:39:58;3.20;;;3.00;;
5904;SDS011;2978;42.012;24.880;2023-03-01T00:42:23;2.93;;;2.73;;
5904;SDS011;2978;42.012;24.880;2023-03-01T00:44:48;3.40;;;3.20;;
5904;SDS011;2978;42.012;24.880;2023-03-01T00:47:14;3.43;;;3.13;;
5904;SDS011;2978;42.012;24.880;2023-03-01T00:49:39;4.67;;;4.27;;
5904;SDS011;2978;42.012;24.880;2023-03-01T00:52:05;4.20;;;3.90;;
5904;SDS011;2978;42.012;24.880;2023-03-01T00:54:31;4.47;;;4.07;;
5904;SDS011;2978;42.012;24.880;2023-03-01T00:56:56;4.67;;;4.27;;
5904;SDS011;2978;42.012;24.880;2023-03-01T00:59:22;4.73;;;4.33;;
5904;SDS011;2978;42.012;24.880;2023-03-01T01:01:47;4.43;;;4.07;;
5904;SDS011;2978;42.012;24.880;2023-03-01T01:04:13;4.00;;;3.63;;
5904;SDS011;2978;42.012;24.880;2023-03-01T01:09:07;4.20;;;3.90;;
5904;SDS011;2978;42.012;24.880;2023-03-01T01:11:34;5.77;;;4.23;;
5904;SDS011;2978;42.012;24.880;2023-03-01T01:14:01;4.80;;;4.40;;
5904;SDS011;2978;42.012;24.880;2023-03-01T01:16:27;4.53;;;4.13;;
5904;SDS011;2978;42.012;24.880;2023-03-01T01:18:53;5.00;;;4.50;;
5904;SDS011;2978;42.012;24.880;2023-03-01T01:21:20;5.70;;;5.20;;
5904;SDS011;2978;42.012;24.880;2023-03-01T01:23:47;4.90;;;4.50;;
5904;SDS011;2978;42.012;24.880;2023-03-01T01:26:16;5.40;;;4.90;;
5904;SDS011;2978;42.012;24.880;2023-03-01T01:28:46;4.60;;;4.20;;
5904;SDS011;2978;42.012;24.880;2023-03-01T01:31:12;4.77;;;4.30;;
5904;SDS011;2978;42.012;24.880;2023-03-01T01:33:38;4.60;;;4.30;;
5904;SDS011;2978;42.012;24.880;2023-03-01T01:36:04;4.43;;;4.03;;
5904;SDS011;2978;42.012;24.880;2023-03-01T01:38:30;4.37;;;4.07;;
5904;SDS011;2978;42.012;24.880;2023-03-01T01:40:56;4.50;;;4.10;;
5904;SDS011;2978;42.012;24.880;2023-03-01T01:43:28;4.60;;;4.20;;
5904;SDS011;2978;42.012;24.880;2023-03-01T01:46:15;4.00;;;3.70;;
5904;SDS011;2978;42.012;24.880;2023-03-01T01:48:58;4.17;;;3.87;;
5904;SDS011;2978;42.012;24.880;2023-03-01T01:51:27;4.20;;;3.90;;
5904;SDS011;2978;42.012;24.880;2023-03-01T01:54:03;4.27;;;3.97;;
5904;SDS011;2978;42.012;24.880;2023-03-01T01:56:35;4.47;;;4.17;;
5904;SDS011;2978;42.012;24.880;2023-03-01T01:59:04;4.63;;;4.23;;
5904;SDS011;2978;42.012;24.880;2023-03-01T02:01:30;5.53;;;4.53;;
5904;SDS011;2978;42.012;24.880;2023-03-01T02:03:55;4.70;;;4.30;;
5904;SDS011;2978;42.012;24.880;2023-03-01T02:06:22;4.50;;;4.10;;
5904;SDS011;2978;42.012;24.880;2023-03-01T02:09:00;5.00;;;4.60;;
5904;SDS011;2978;42.012;24.880;2023-03-01T02:11:29;3.90;;;3.60;;
5904;SDS011;2978;42.012;24.880;2023-03-01T02:13:56;3.33;;;3.13;;
5904;SDS011;2978;42.012;24.880;2023-03-01T02:16:21;3.37;;;3.17;;
5904;SDS011;2978;42.012;24.880;2023-03-01T02:18:47;3.00;;;2.80;;
5904;SDS011;2978;42.012;24.880;2023-03-01T02:23:45;2.73;;;2.53;;
5904;SDS011;2978;42.012;24.880;2023-03-01T02:26:13;2.90;;;2.70;;
5904;SDS011;2978;42.012;24.880;2023-03-01T02:28:56;3.30;;;3.10;;
5904;SDS011;2978;42.012;24.880;2023-03-01T02:31:22;3.13;;;2.93;;
5904;SDS011;2978;42.012;24.880;2023-03-01T02:34:06;3.10;;;2.90;;
5904;SDS011;2978;42.012;24.880;2023-03-01T02:36:38;3.00;;;2.80;;
5904;SDS011;2978;42.012;24.880;2023-03-01T02:39:07;3.20;;;3.00;;
5904;SDS011;2978;42.012;24.880;2023-03-01T02:41:39;2.93;;;2.73;;
5904;SDS011;2978;42.012;24.880;2023-03-01T02:44:07;3.50;;;3.23;;
5904;SDS011;2978;42.012;24.880;2023-03-01T02:46:33;3.30;;;3.00;;
5904;SDS011;2978;42.012;24.880;2023-03-01T02:48:59;4.40;;;3.70;;
5904;SDS011;2978;42.012;24.880;2023-03-01T02:54:10;3.90;;;3.60;;
5904;SDS011;2978;42.012;24.880;2023-03-01T02:56:53;3.53;;;3.30;;
5904;SDS011;2978;42.012;24.880;2023-03-01T02:59:21;4.70;;;4.30;;
5904;SDS011;2978;42.012;24.880;2023-03-01T03:01:51;4.80;;;4.40;;
5904;SDS011;2978;42.012;24.880;2023-03-01T03:04:18;5.20;;;4.70;;
5904;SDS011;2978;42.012;24.880;2023-03-01T03:06:46;5.93;;;5.43;;
5904;SDS011;2978;42.012;24.880;2023-03-01T03:09:13;5.43;;;4.67;;
5904;SDS011;2978;42.012;24.880;2023-03-01T03:11:39;4.70;;;4.40;;
5904;SDS011;2978;42.012;24.880;2023-03-01T03:14:06;5.60;;;5.10;;
5904;SDS011;2978;42.012;24.880;2023-03-01T03:16:39;5.53;;;5.13;;
5904;SDS011;2978;42.012;24.880;2023-03-01T03:19:08;6.27;;;4.53;;
5904;SDS011;2978;42.012;24.880;2023-03-01T03:21:34;4.83;;;4.10;;
5904;SDS011;2978;42.012;24.880;2023-03-01T03:23:59;4.10;;;3.77;;
5904;SDS011;2978;42.012;24.880;2023-03-01T03:26:25;4.63;;;4.23;;
5904;SDS011;2978;42.012;24.880;2023-03-01T03:28:51;4.13;;;3.83;;
5904;SDS011;2978;42.012;24.880;2023-03-01T03:31:16;4.90;;;4.50;;
5904;SDS011;2978;42.012;24.880;2023-03-01T03:33:42;3.77;;;3.47;;
5904;SDS011;2978;42.012;24.880;2023-03-01T03:36:08;3.90;;;3.60;;
5904;SDS011;2978;42.012;24.880;2023-03-01T03:38:38;4.00;;;3.70;;
5904;SDS011;2978;42.012;24.880;2023-03-01T03:41:05;3.63;;;3.33;;
5904;SDS011;2978;42.012;24.880;2023-03-01T03:43:34;3.83;;;3.53;;
5904;SDS011;2978;42.012;24.880;2023-03-01T03:46:01;3.87;;;3.57;;
5904;SDS011;2978;42.012;24.880;2023-03-01T03:48:46;3.90;;;3.60;;
5904;SDS011;2978;42.012;24.880;2023-03-01T03:51:15;4.73;;;4.33;;
5904;SDS011;2978;42.012;24.880;2023-03-01T03:53:42;3.67;;;3.40;;
5904;SDS011;2978;42.012;24.880;2023-03-01T04:01:36;3.30;;;3.10;;
5904;SDS011;2978;42.012;24.880;2023-03-01T04:04:20;3.80;;;3.50;;
5904;SDS011;2978;42.012;24.880;2023-03-01T04:06:46;3.70;;;3.40;;
5904;SDS011;2978;42.012;24.880;2023-03-01T04:09:13;3.80;;;3.50;;
5904;SDS011;2978;42.012;24.880;2023-03-01T04:11:38;5.73;;;3.77;;
5904;SDS011;2978;42.012;24.880;2023-03-01T04:14:04;3.70;;;3.40;;
5904;SDS011;2978;42.012;24.880;2023-03-01T04:16:29;3.27;;;2.97;;
5904;SDS011;2978;42.012;24.880;2023-03-01T04:18:55;3.70;;;3.40;;
5904;SDS011;2978;42.012;24.880;2023-03-01T04:21:20;4.80;;;3.60;;
5904;SDS011;2978;42.012;24.880;2023-03-01T04:23:46;4.20;;;3.90;;
5904;SDS011;2978;42.012;24.880;2023-03-01T04:26:11;4.03;;;3.73;;
5904;SDS011;2978;42.012;24.880;2023-03-01T04:28:38;5.60;;;5.10;;
5904;SDS011;2978;42.012;24.880;2023-03-01T04:31:26;5.90;;;4.70;;
5904;SDS011;2978;42.012;24.880;2023-03-01T04:33:52;4.47;;;4.13;;
5904;SDS011;2978;42.012;24.880;2023-03-01T04:36:21;5.77;;;5.20;;
5904;SDS011;2978;42.012;24.880;2023-03-01T04:38:48;4.30;;;4.00;;
5904;SDS011;2978;42.012;24.880;2023-03-01T04:41:15;5.40;;;4.90;;
5904;SDS011;2978;42.012;24.880;2023-03-01T04:43:42;11.10;;;10.00;;
5904;SDS011;2978;42.012;24.880;2023-03-01T04:46:08;5.40;;;5.00;;
5904;SDS011;2978;42.012;24.880;2023-03-01T04:48:37;4.73;;;4.33;;
5904;SDS011;2978;42.012;24.880;2023-03-01T04:51:03;5.10;;;4.60;;
5904;SDS011;2978;42.012;24.880;2023-03-01T04:53:29;5.90;;;5.30;;
5904;SDS011;2978;42.012;24.880;2023-03-01T04:55:55;6.03;;;5.53;;
5904;SDS011;2978;42.012;24.880;2023-03-01T04:58:22;5.30;;;4.90;;
5904;SDS011;2978;42.012;24.880;2023-03-01T05:00:49;7.27;;;6.67;;
5904;SDS011;2978;42.012;24.880;2023-03-01T05:03:14;6.30;;;5.70;;
5904;SDS011;2978;42.012;24.880;2023-03-01T05:05:43;8.93;;;8.03;;
5904;SDS011;2978;42.012;24.880;2023-03-01T05:08:09;16.27;;;12.13;;
5904;SDS011;2978;42.012;24.880;2023-03-01T05:10:42;27.70;;;24.70;;
5904;SDS011;2978;42.012;24.880;2023-03-01T05:13:11;42.47;;;37.80;;
5904;SDS011;2978;42.012;24.880;2023-03-01T05:15:38;36.90;;;31.00;;
5904;SDS011;2978;42.012;24.880;2023-03-01T05:18:04;23.33;;;20.40;;
5904;SDS011;2978;42.012;24.880;2023-03-01T05:20:36;23.40;;;18.47;;
5904;SDS011;2978;42.012;24.880;2023-03-01T05:23:02;26.60;;;18.53;;
5904;SDS011;2978;42.012;24.880;2023-03-01T05:25:30;16.90;;;13.63;;
5904;SDS011;2978;42.012;24.880;2023-03-01T05:27:58;10.63;;;9.47;;
5904;SDS011;2978;42.012;24.880;2023-03-01T05:30:24;11.37;;;10.07;;
5904;SDS011;2978;42.012;24.880;2023-03-01T05:32:50;12.50;;;11.13;;
5904;SDS011;2978;42.012;24.880;2023-03-01T05:35:20;14.07;;;12.00;;
5904;SDS011;2978;42.012;24.880;2023-03-01T05:37:47;13.40;;;11.30;;
5904;SDS011;2978;42.012;24.880;2023-03-01T05:40:17;11.13;;;8.83;;
5904;SDS011;2978;42.012;24.880;2023-03-01T05:42:48;10.17;;;9.17;;
5904;SDS011;2978;42.012;24.880;2023-03-01T05:45:19;12.83;;;9.70;;
5904;SDS011;2978;42.012;24.880;2023-03-01T05:47:45;10.30;;;9.27;;
5904;SDS011;2978;42.012;24.880;2023-03-01T05:50:16;9.23;;;8.37;;
5904;SDS011;2978;42.012;24.880;2023-03-01T05:52:45;8.57;;;7.50;;
5904;SDS011;2978;42.012;24.880;2023-03-01T05:55:18;13.27;;;11.17;;
5904;SDS011;2978;42.012;24.880;2023-03-01T05:57:45;11.73;;;9.80;;
5904;SDS011;2978;42.012;24.880;2023-03-01T06:00:11;10.70;;;9.60;;
5904;SDS011;2978;42.012;24.880;2023-03-01T06:02:38;7.57;;;6.20;;
5904;SDS011;2978;42.012;24.880;2023-03-01T06:05:05;9.27;;;8.23;;
5904;SDS011;2978;42.012;24.880;2023-03-01T06:07:32;7.43;;;6.27;;
5904;SDS011;2978;42.012;24.880;2023-03-01T06:09:57;8.10;;;7.30;;
5904;SDS011;2978;42.012;24.880;2023-03-01T06:12:23;13.47;;;12.17;;
5904;SDS011;2978;42.012;24.880;2023-03-01T06:14:48;8.03;;;6.97;;
5904;SDS011;2978;42.012;24.880;2023-03-01T06:17:14;5.20;;;4.80;;
5904;SDS011;2978;42.012;24.880;2023-03-01T06:19:39;6.33;;;5.73;;
5904;SDS011;2978;42.012;24.880;2023-03-01T06:22:04;5.53;;;5.03;;
5904;SDS011;2978;42.012;24.880;2023-03-01T06:24:30;3.97;;;3.57;;
5904;SDS011;2978;42.012;24.880;2023-03-01T06:26:55;6.13;;;4.70;;
5904;SDS011;2978;42.012;24.880;2023-03-01T06:29:21;4.80;;;4.27;;
5904;SDS011;2978;42.012;24.880;2023-03-01T06:31:48;5.00;;;4.23;;
5904;SDS011;2978;42.012;24.880;2023-03-01T06:34:13;7.17;;;5.40;;
5904;SDS011;2978;42.012;24.880;2023-03-01T06:36:39;5.43;;;4.73;;
5904;SDS011;2978;42.012;24.880;2023-03-01T06:39:05;9.60;;;6.47;;
5904;SDS011;2978;42.012;24.880;2023-03-01T06:41:31;10.67;;;7.47;;
5904;SDS011;2978;42.012;24.880;2023-03-01T06:43:57;5.20;;;4.50;;
5904;SDS011;2978;42.012;24.880;2023-03-01T06:46:23;11.77;;;8.00;;
5904;SDS011;2978;42.012;24.880;2023-03-01T06:48:49;14.53;;;8.87;;
5904;SDS011;2978;42.012;24.880;2023-03-01T06:51:14;10.30;;;6.90;;
5904;SDS011;2978;42.012;24.880;2023-03-01T06:53:40;13.97;;;8.37;;
5904;SDS011;2978;42.012;24.880;2023-03-01T06:56:05;7.23;;;5.87;;
5904;SDS011;2978;42.012;24.880;2023-03-01T06:58:31;8.33;;;7.07;;
5904;SDS011;2978;42.012;24.880;2023-03-01T07:00:56;8.33;;;6.60;;
5904;SDS011;2978;42.012;24.880;2023-03-01T07:03:22;5.50;;;4.67;;
5904;SDS011;2978;42.012;24.880;2023-03-01T07:05:49;5.03;;;4.53;;
5904;SDS011;2978;42.012;24.880;2023-03-01T07:08:16;6.80;;;5.00;;
5904;SDS011;2978;42.012;24.880;2023-03-01T07:10:42;8.47;;;6.50;;
5904;SDS011;2978;42.012;24.880;2023-03-01T07:13:07;4.00;;;3.60;;
5904;SDS011;2978;42.012;24.880;2023-03-01T07:15:33;6.07;;;4.87;;
5904;SDS011;2978;42.012;24.880;2023-03-01T07:17:58;6.40;;;4.47;;
5904;SDS011;2978;42.012;24.880;2023-03-01T07:20:24;6.80;;;4.80;;
5904;SDS011;2978;42.012;24.880;2023-03-01T07:22:53;7.20;;;5.07;;
5904;SDS011;2978;42.012;24.880;2023-03-01T07:25:20;6.33;;;5.17;;
5904;SDS011;2978;42.012;24.880;2023-03-01T07:27:51;7.83;;;4.20;;
5904;SDS011;2978;42.012;24.880;2023-03-01T07:30:17;7.60;;;5.10;;
5904;SDS011;2978;42.012;24.880;2023-03-01T07:32:43;5.00;;;3.43;;
5904;SDS011;2978;42.012;24.880;2023-03-01T07:35:08;3.60;;;2.90;;
5904;SDS011;2978;42.012;24.880;2023-03-01T07:37:34;3.80;;;2.57;;
5904;SDS011;2978;42.012;24.880;2023-03-01T07:39:59;2.77;;;2.57;;
5904;SDS011;2978;42.012;24.880;2023-03-01T07:42:24;3.00;;;2.70;;
5904;SDS011;2978;42.012;24.880;2023-03-01T07:44:50;4.50;;;2.60;;
5904;SDS011;2978;42.012;24.880;2023-03-01T07:47:15;4.70;;;3.33;;
5904;SDS011;2978;42.012;24.880;2023-03-01T07:49:41;7.87;;;3.93;;
5904;SDS011;2978;42.012;24.880;2023-03-01T07:52:06;3.93;;;3.07;;
5904;SDS011;2978;42.012;24.880;2023-03-01T07:54:32;4.43;;;3.13;;
5904;SDS011;2978;42.012;24.880;2023-03-01T07:56:57;5.47;;;4.97;;
5904;SDS011;2978;42.012;24.880;2023-03-01T07:59:23;3.50;;;3.20;;
5904;SDS011;2978;42.012;24.880;2023-03-01T08:01:53;5.47;;;4.23;;
5904;SDS011;2978;42.012;24.880;2023-03-01T08:04:20;7.30;;;5.07;;
5904;SDS011;2978;42.012;24.880;2023-03-01T08:06:45;10.77;;;5.50;;
5904;SDS011;2978;42.012;24.880;2023-03-01T08:09:10;9.50;;;4.90;;
5904;SDS011;2978;42.012;24.880;2023-03-01T08:11:36;7.10;;;4.73;;
5904;SDS011;2978;42.012;24.880;2023-03-01T08:14:01;20.60;;;12.97;;
5904;SDS011;2978;42.012;24.880;2023-03-01T08:16:27;5.23;;;4.00;;
5904;SDS011;2978;42.012;24.880;2023-03-01T08:18:52;5.07;;;4.17;;
5904;SDS011;2978;42.012;24.880;2023-03-01T08:21:19;6.00;;;3.30;;
5904;SDS011;2978;42.012;24.880;2023-03-01T08:23:44;4.30;;;2.67;;
5904;SDS011;2978;42.012;24.880;2023-03-01T08:26:12;5.30;;;3.50;;
5904;SDS011;2978;42.012;24.880;2023-03-01T08:28:44;7.90;;;4.50;;
5904;SDS011;2978;42.012;24.880;2023-03-01T08:31:18;4.97;;;3.50;;
5904;SDS011;2978;42.012;24.880;2023-03-01T08:33:52;3.97;;;3.57;;
5904;SDS011;2978;42.012;24.880;2023-03-01T08:36:21;4.33;;;3.90;;
5904;SDS011;2978;42.012;24.880;2023-03-01T08:38:51;3.20;;;2.90;;
5904;SDS011;2978;42.012;24.880;2023-03-01T08:41:17;9.20;;;4.73;;
5904;SDS011;2978;42.012;24.880;2023-03-01T08:43:43;13.50;;;6.00;;
5904;SDS011;2978;42.012;24.880;2023-03-01T08:46:08;5.30;;;3.93;;
5904;SDS011;2978;42.012;24.880;2023-03-01T08:48:34;6.03;;;3.73;;
5904;SDS011;2978;42.012;24.880;2023-03-01T08:51:13;8.27;;;4.67;;
5904;SDS011;2978;42.012;24.880;2023-03-01T08:53:41;7.37;;;4.47;;
5904;SDS011;2978;42.012;24.880;2023-03-01T08:56:07;3.90;;;3.50;;
5904;SDS011;2978;42.012;24.880;2023-03-01T08:58:33;6.40;;;4.17;;
5904;SDS011;2978;42.012;24.880;2023-03-01T09:00:59;4.93;;;3.80;;
5904;SDS011;2978;42.012;24.880;2023-03-01T09:03:25;7.57;;;6.17;;
5904;SDS011;2978;42.012;24.880;2023-03-01T09:05:52;7.07;;;4.70;;
5904;SDS011;2978;42.012;24.880;2023-03-01T09:08:18;9.13;;;5.63;;
5904;SDS011;2978;42.012;24.880;2023-03-01T09:10:44;8.10;;;4.27;;
5904;SDS011;2978;42.012;24.880;2023-03-01T09:13:10;3.20;;;2.30;;
5904;SDS011;2978;42.012;24.880;2023-03-01T09:15:38;3.50;;;3.20;;
5904;SDS011;2978;42.012;24.880;2023-03-01T09:18:04;12.80;;;4.80;;
5904;SDS011;2978;42.012;24.880;2023-03-01T09:20:30;10.53;;;5.20;;
5904;SDS011;2978;42.012;24.880;2023-03-01T09:22:56;11.17;;;6.73;;
5904;SDS011;2978;42.012;24.880;2023-03-01T09:25:22;11.20;;;6.40;;
5904;SDS011;2978;42.012;24.880;2023-03-01T09:27:50;10.53;;;7.57;;
5904;SDS011;2978;42.012;24.880;2023-03-01T09:30:16;12.77;;;9.43;;
5904;SDS011;2978;42.012;24.880;2023-03-01T09:32:42;7.50;;;5.27;;
5904;SDS011;2978;42.012;24.880;2023-03-01T09:35:10;8.73;;;6.60;;
5904;SDS011;2978;42.012;24.880;2023-03-01T09:37:36;8.47;;;7.57;;
5904;SDS011;2978;42.012;24.880;2023-03-01T09:40:12;14.60;;;10.30;;
5904;SDS011;2978;42.012;24.880;2023-03-01T09:45:48;10.80;;;6.27;;
5904;SDS011;2978;42.012;24.880;2023-03-01T09:48:16;5.17;;;4.67;;
5904;SDS011;2978;42.012;24.880;2023-03-01T09:50:43;14.67;;;10.87;;
5904;SDS011;2978;42.012;24.880;2023-03-01T09:53:18;11.00;;;8.23;;
5904;SDS011;2978;42.012;24.880;2023-03-01T09:56:04;8.40;;;4.60;;
5904;SDS011;2978;42.012;24.880;2023-03-01T10:06:44;8.43;;;4.90;;
5904;SDS011;2978;42.012;24.880;2023-03-01T10:09:33;10.70;;;8.43;;
5904;SDS011;2978;42.012;24.880;2023-03-01T10:12:00;7.17;;;6.47;;
5904;SDS011;2978;42.012;24.880;2023-03-01T10:17:41;8.90;;;6.33;;
5904;SDS011;2978;42.012;24.880;2023-03-01T10:20:23;10.77;;;7.67;;
5904;SDS011;2978;42.012;24.880;2023-03-01T10:22:50;12.17;;;8.63;;
5904;SDS011;2978;42.012;24.880;2023-03-01T10:28:17;6.33;;;5.23;;
5904;SDS011;2978;42.012;24.880;2023-03-01T10:30:46;5.73;;;3.83;;
5904;SDS011;2978;42.012;24.880;2023-03-01T10:33:19;2.47;;;2.27;;
5904;SDS011;2978;42.012;24.880;2023-03-01T10:35:48;8.17;;;2.60;;
5904;SDS011;2978;42.012;24.880;2023-03-01T10:38:14;2.50;;;2.30;;
5904;SDS011;2978;42.012;24.880;2023-03-01T10:43:15;8.23;;;6.30;;
5904;SDS011;2978;42.012;24.880;2023-03-01T10:45:41;5.37;;;3.50;;
5904;SDS011;2978;42.012;24.880;2023-03-01T10:48:14;6.73;;;4.57;;
5904;SDS011;2978;42.012;24.880;2023-03-01T10:50:48;3.93;;;3.50;;
5904;SDS011;2978;42.012;24.880;2023-03-01T10:53:37;3.93;;;3.60;;
5904;SDS011;2978;42.012;24.880;2023-03-01T10:56:09;6.30;;;4.33;;
5904;SDS011;2978;42.012;24.880;2023-03-01T10:58:40;4.35;;;3.22;;
5904;SDS011;2978;42.012;24.880;2023-03-01T11:03:54;8.80;;;6.03;;
5904;SDS011;2978;42.012;24.880;2023-03-01T11:06:35;7.90;;;5.90;;
5904;SDS011;2978;42.012;24.880;2023-03-01T11:09:15;4.40;;;3.60;;
5904;SDS011;2978;42.012;24.880;2023-03-01T11:11:44;3.83;;;3.43;;
5904;SDS011;2978;42.012;24.880;2023-03-01T11:14:17;8.60;;;3.90;;
5904;SDS011;2978;42.012;24.880;2023-03-01T11:17:03;10.13;;;6.70;;
5904;SDS011;2978;42.012;24.880;2023-03-01T11:19:40;7.70;;;5.70;;
5904;SDS011;2978;42.012;24.880;2023-03-01T11:22:10;9.13;;;6.00;;
5904;SDS011;2978;42.012;24.880;2023-03-01T11:24:49;4.33;;;3.40;;
5904;SDS011;2978;42.012;24.880;2023-03-01T11:27:24;27.83;;;15.17;;
5904;SDS011;2978;42.012;24.880;2023-03-01T11:30:13;5.03;;;4.20;;
5904;SDS011;2978;42.012;24.880;2023-03-01T11:35:23;4.00;;;3.30;;
5904;SDS011;2978;42.012;24.880;2023-03-01T11:43:15;9.47;;;6.30;;
5904;SDS011;2978;42.012;24.880;2023-03-01T11:50:49;8.77;;;4.60;;
5904;SDS011;2978;42.012;24.880;2023-03-01T11:56:20;4.07;;;3.40;;
5904;SDS011;2978;42.012;24.880;2023-03-01T12:26:33;9.27;;;5.67;;
5904;SDS011;2978;42.012;24.880;2023-03-01T12:50:42;15.73;;;7.63;;
5904;SDS011;2978;42.012;24.880;2023-03-01T12:53:25;10.83;;;6.23;;
5904;SDS011;2978;42.012;24.880;2023-03-01T12:55:53;15.67;;;7.23;;
5904;SDS011;2978;42.012;24.880;2023-03-01T13:01:15;17.43;;;8.70;;
5904;SDS011;2978;42.012;24.880;2023-03-01T13:06:41;5.10;;;3.60;;
5904;SDS011;2978;42.012;24.880;2023-03-01T13:09:30;6.60;;;3.30;;
5904;SDS011;2978;42.012;24.880;2023-03-01T13:11:59;9.83;;;4.50;;
5904;SDS011;2978;42.012;24.880;2023-03-01T13:16:53;13.90;;;7.60;;
5904;SDS011;2978;42.012;24.880;2023-03-01T13:19:23;15.10;;;9.90;;
5904;SDS011;2978;42.012;24.880;2023-03-01T13:21:51;10.33;;;6.00;;
5904;SDS011;2978;42.012;24.880;2023-03-01T13:32:27;8.10;;;6.37;;
5904;SDS011;2978;42.012;24.880;2023-03-01T13:34:58;10.03;;;3.77;;
5904;SDS011;2978;42.012;24.880;2023-03-01T13:37:47;5.77;;;4.53;;
5904;SDS011;2978;42.012;24.880;2023-03-01T13:42:43;15.70;;;10.40;;
5904;SDS011;2978;42.012;24.880;2023-03-01T13:48:08;9.50;;;6.50;;
5904;SDS011;2978;42.012;24.880;2023-03-01T13:50:47;13.00;;;9.03;;
5904;SDS011;2978;42.012;24.880;2023-03-01T13:53:17;18.93;;;11.67;;
5904;SDS011;2978;42.012;24.880;2023-03-01T13:55:46;14.73;;;11.10;;
5904;SDS011;2978;42.012;24.880;2023-03-01T13:58:19;12.80;;;8.10;;
5904;SDS011;2978;42.012;24.880;2023-03-01T14:00:54;6.43;;;5.30;;
5904;SDS011;2978;42.012;24.880;2023-03-01T14:03:23;8.50;;;6.53;;
5904;SDS011;2978;42.012;24.880;2023-03-01T14:08:31;13.47;;;8.87;;
5904;SDS011;2978;42.012;24.880;2023-03-01T14:20:11;16.43;;;11.30;;
5904;SDS011;2978;42.012;24.880;2023-03-01T14:22:41;25.23;;;16.17;;
5904;SDS011;2978;42.012;24.880;2023-03-01T14:25:19;32.10;;;18.23;;
5904;SDS011;2978;42.012;24.880;2023-03-01T14:28:13;17.33;;;13.40;;
5904;SDS011;2978;42.012;24.880;2023-03-01T14:30:44;11.80;;;9.23;;
5904;SDS011;2978;42.012;24.880;2023-03-01T14:33:22;9.50;;;8.00;;
5904;SDS011;2978;42.012;24.880;2023-03-01T14:35:56;7.07;;;6.37;;
5904;SDS011;2978;42.012;24.880;2023-03-01T14:38:30;5.87;;;5.23;;
5904;SDS011;2978;42.012;24.880;2023-03-01T14:41:14;9.90;;;6.67;;
5904;SDS011;2978;42.012;24.880;2023-03-01T14:43:51;15.33;;;10.10;;
5904;SDS011;2978;42.012;24.880;2023-03-01T14:46:19;14.00;;;10.53;;
5904;SDS011;2978;42.012;24.880;2023-03-01T14:49:06;15.00;;;10.17;;
5904;SDS011;2978;42.012;24.880;2023-03-01T14:51:38;13.50;;;11.33;;
5904;SDS011;2978;42.012;24.880;2023-03-01T14:56:50;10.07;;;8.37;;
5904;SDS011;2978;42.012;24.880;2023-03-01T14:59:18;11.70;;;9.00;;
5904;SDS011;2978;42.012;24.880;2023-03-01T15:01:47;10.90;;;8.97;;
5904;SDS011;2978;42.012;24.880;2023-03-01T15:04:13;12.30;;;9.00;;
5904;SDS011;2978;42.012;24.880;2023-03-01T15:06:39;14.40;;;11.03;;
5904;SDS011;2978;42.012;24.880;2023-03-01T15:09:06;11.70;;;9.60;;
5904;SDS011;2978;42.012;24.880;2023-03-01T15:11:36;18.00;;;10.87;;
5904;SDS011;2978;42.012;24.880;2023-03-01T15:14:24;12.87;;;10.20;;
5904;SDS011;2978;42.012;24.880;2023-03-01T15:16:54;19.27;;;10.43;;
5904;SDS011;2978;42.012;24.880;2023-03-01T15:19:28;6.57;;;5.97;;
5904;SDS011;2978;42.012;24.880;2023-03-01T15:21:54;7.13;;;6.23;;
5904;SDS011;2978;42.012;24.880;2023-03-01T15:24:23;8.23;;;6.17;;
5904;SDS011;2978;42.012;24.880;2023-03-01T15:26:57;9.50;;;6.90;;
5904;SDS011;2978;42.012;24.880;2023-03-01T15:29:31;8.80;;;6.80;;
5904;SDS011;2978;42.012;24.880;2023-03-01T15:32:06;6.08;;;4.64;;
5904;SDS011;2978;42.012;24.880;2023-03-01T15:34:49;7.23;;;5.27;;
5904;SDS011;2978;42.012;24.880;2023-03-01T15:42:56;9.47;;;7.87;;
5904;SDS011;2978;42.012;24.880;2023-03-01T15:45:24;15.40;;;12.33;;
5904;SDS011;2978;42.012;24.880;2023-03-01T15:48:00;20.23;;;13.93;;
5904;SDS011;2978;42.012;24.880;2023-03-01T15:50:33;32.40;;;17.97;;
5904;SDS011;2978;42.012;24.880;2023-03-01T15:53:01;20.33;;;11.33;;
5904;SDS011;2978;42.012;24.880;2023-03-01T15:55:32;28.00;;;14.87;;
5904;SDS011;2978;42.012;24.880;2023-03-01T16:00:25;21.40;;;14.70;;
5904;SDS011;2978;42.012;24.880;2023-03-01T16:02:51;23.07;;;15.00;;
5904;SDS011;2978;42.012;24.880;2023-03-01T16:07:46;23.73;;;14.70;;
5904;SDS011;2978;42.012;24.880;2023-03-01T16:10:11;22.07;;;15.50;;
5904;SDS011;2978;42.012;24.880;2023-03-01T16:12:38;25.23;;;15.87;;
5904;SDS011;2978;42.012;24.880;2023-03-01T16:15:04;41.70;;;24.27;;
5904;SDS011;2978;42.012;24.880;2023-03-01T16:17:38;30.20;;;21.00;;
5904;SDS011;2978;42.012;24.880;2023-03-01T16:20:04;22.53;;;16.27;;
5904;SDS011;2978;42.012;24.880;2023-03-01T16:22:29;19.70;;;13.23;;
5904;SDS011;2978;42.012;24.880;2023-03-01T16:24:55;12.63;;;8.40;;
5904;SDS011;2978;42.012;24.880;2023-03-01T16:27:20;10.67;;;9.57;;
5904;SDS011;2978;42.012;24.880;2023-03-01T16:29:45;17.30;;;11.50;;
5904;SDS011;2978;42.012;24.880;2023-03-01T16:32:11;10.37;;;7.37;;
5904;SDS011;2978;42.012;24.880;2023-03-01T16:34:36;13.90;;;8.87;;
5904;SDS011;2978;42.012;24.880;2023-03-01T16:37:02;8.33;;;6.03;;
5904;SDS011;2978;42.012;24.880;2023-03-01T16:39:27;9.17;;;6.00;;
5904;SDS011;2978;42.012;24.880;2023-03-01T16:41:53;12.00;;;7.30;;
5904;SDS011;2978;42.012;24.880;2023-03-01T16:44:18;7.83;;;6.73;;
5904;SDS011;2978;42.012;24.880;2023-03-01T16:46:43;12.00;;;8.50;;
5904;SDS011;2978;42.012;24.880;2023-03-01T16:49:09;12.70;;;8.90;;
5904;SDS011;2978;42.012;24.880;2023-03-01T16:51:34;12.60;;;9.80;;
5904;SDS011;2978;42.012;24.880;2023-03-01T16:54:01;19.43;;;10.07;;
5904;SDS011;2978;42.012;24.880;2023-03-01T16:56:27;10.93;;;9.30;;
5904;SDS011;2978;42.012;24.880;2023-03-01T16:58:54;11.37;;;7.67;;
5904;SDS011;2978;42.012;24.880;2023-03-01T17:01:19;13.27;;;10.40;;
5904;SDS011;2978;42.012;24.880;2023-03-01T17:03:49;12.40;;;10.37;;
5904;SDS011;2978;42.012;24.880;2023-03-01T17:06:16;14.17;;;11.97;;
5904;SDS011;2978;42.012;24.880;2023-03-01T17:08:45;13.63;;;11.33;;
5904;SDS011;2978;42.012;24.880;2023-03-01T17:11:14;16.60;;;12.63;;
5904;SDS011;2978;42.012;24.880;2023-03-01T17:13:41;20.63;;;14.67;;
5904;SDS011;2978;42.012;24.880;2023-03-01T17:16:08;31.80;;;17.20;;
5904;SDS011;2978;42.012;24.880;2023-03-01T17:18:36;26.57;;;17.67;;
5904;SDS011;2978;42.012;24.880;2023-03-01T17:21:02;28.47;;;17.40;;
5904;SDS011;2978;42.012;24.880;2023-03-01T17:23:29;29.23;;;18.07;;
5904;SDS011;2978;42.012;24.880;2023-03-01T17:25:56;35.90;;;18.53;;
5904;SDS011;2978;42.012;24.880;2023-03-01T17:28:22;30.03;;;17.10;;
5904;SDS011;2978;42.012;24.880;2023-03-01T17:30:49;22.57;;;15.30;;
5904;SDS011;2978;42.012;24.880;2023-03-01T17:33:15;17.57;;;14.23;;